Time;durP1;ratioP1;P1;durP2;ratioP2;P2;SDS_P1;SDS_P2;PMS_P1;PMS_P2;Temp;Humidity;BMP_temperature;BMP_pressure;BME280_temperature;BME280_humidity;BME280_pressure;Samples;Min_cycle;Max_cycle;Signal;HPM_P1;HPM_P2
2022/05/15 00:02:27;;;;;;;22.67;12.13;;;11.50;99.90;;;;;;6256230;22;20430;-63
2022/05/15 00:04:53;;;;;;;19.48;11.27;;;11.50;99.90;;;;;;6252221;22;20016;-63
2022/05/15 00:07:18;;;;;;;25.00;12.68;;;11.40;99.90;;;;;;6251801;22;20008;-63
2022/05/15 00:09:44;;;;;;;26.38;12.60;;;11.40;99.90;;;;;;6256122;22;20054;-63
2022/05/15 00:12:10;;;;;;;21.23;11.85;;;11.40;99.90;;;;;;6259433;22;20015;-63
2022/05/15 00:14:35;;;;;;;29.35;12.18;;;11.40;99.90;;;;;;6250357;22;20011;-63
2022/05/15 00:17:01;;;;;;;22.42;12.70;;;11.40;99.90;;;;;;6252484;22;20371;-63
2022/05/15 00:19:27;;;;;;;19.58;11.65;;;11.40;99.90;;;;;;6253957;22;20094;-64
2022/05/15 00:21:52;;;;;;;22.70;11.90;;;11.30;99.90;;;;;;6258468;22;20003;-63
2022/05/15 00:24:18;;;;;;;23.40;12.75;;;11.30;99.90;;;;;;6253340;22;20346;-63
2022/05/15 00:26:44;;;;;;;22.17;13.25;;;11.30;99.90;;;;;;6259179;22;19999;-63
2022/05/15 00:29:09;;;;;;;22.83;12.02;;;11.30;99.90;;;;;;6252050;22;20432;-63
2022/05/15 00:31:35;;;;;;;18.60;13.05;;;11.20;99.90;;;;;;6249515;22;20000;-63
2022/05/15 00:34:00;;;;;;;24.02;13.68;;;11.20;99.90;;;;;;6254504;22;20008;-63
2022/05/15 00:36:26;;;;;;;30.02;12.82;;;11.30;99.90;;;;;;6256641;22;20309;-63
2022/05/15 00:38:51;;;;;;;23.33;13.45;;;11.40;99.90;;;;;;6259310;22;19995;-63
2022/05/15 00:41:17;;;;;;;20.38;13.68;;;11.30;99.90;;;;;;6254447;22;19999;-62
2022/05/15 00:43:48;;;;;;;26.17;14.05;;;11.20;99.90;;;;;;6256004;22;20057;-62
2022/05/15 00:46:33;;;;;;;21.60;13.75;;;11.20;99.90;;;;;;6252375;22;20011;-64
2022/05/15 00:49:01;;;;;;;28.17;13.75;;;11.20;99.90;;;;;;6255966;22;20090;-64
2022/05/15 00:51:30;;;;;;;26.02;14.15;;;11.10;99.90;;;;;;6256695;22;20007;-63
2022/05/15 00:54:06;;;;;;;24.75;13.80;;;11.10;99.90;;;;;;6253910;22;20224;-64
2022/05/15 00:56:34;;;;;;;21.52;13.70;;;11.10;99.90;;;;;;6251344;22;20008;-63
2022/05/15 00:59:02;;;;;;;25.48;13.23;;;12.10;99.90;;;;;;6251234;22;20027;-63
2022/05/15 01:01:27;;;;;;;26.40;13.63;;;11.40;99.90;;;;;;6224804;22;20042;-63
2022/05/15 01:03:53;;;;;;;27.50;13.40;;;11.30;99.90;;;;;;6255820;22;20027;-63
2022/05/15 01:06:19;;;;;;;20.92;12.40;;;11.40;99.90;;;;;;6256512;22;20339;-63
2022/05/15 01:08:44;;;;;;;22.60;13.13;;;11.40;99.90;;;;;;6258487;22;19999;-63
2022/05/15 01:11:12;;;;;;;19.70;13.40;;;11.30;99.90;;;;;;6254113;22;20098;-63
2022/05/15 01:13:38;;;;;;;27.42;13.60;;;11.20;99.90;;;;;;6250116;22;20397;-64
2022/05/15 01:16:05;;;;;;;25.80;14.02;;;11.00;99.90;;;;;;6226053;22;20357;-63
2022/05/15 01:18:32;;;;;;;23.13;14.00;;;10.90;99.90;;;;;;6251640;22;20440;-63
2022/05/15 01:20:59;;;;;;;22.30;14.00;;;10.80;99.90;;;;;;6252041;22;20054;-63
2022/05/15 01:23:25;;;;;;;26.98;13.77;;;10.80;99.90;;;;;;6253709;22;20058;-63
2022/05/15 01:25:50;;;;;;;22.65;13.18;;;10.90;99.90;;;;;;6250585;22;20013;-63
2022/05/15 01:28:19;;;;;;;27.38;13.52;;;10.90;99.90;;;;;;6249333;22;20015;-63
2022/05/15 01:30:45;;;;;;;24.70;14.05;;;10.90;99.90;;;;;;6254663;22;20242;-63
2022/05/15 01:33:11;;;;;;;23.20;12.93;;;10.70;99.90;;;;;;6254569;22;20424;-63
2022/05/15 01:35:37;;;;;;;32.05;14.25;;;10.70;99.90;;;;;;6253556;22;20366;-63
2022/05/15 01:38:03;;;;;;;22.10;13.20;;;10.60;99.90;;;;;;6254112;22;20004;-62
2022/05/15 01:40:28;;;;;;;25.50;13.32;;;10.60;99.90;;;;;;6246940;22;20004;-63
2022/05/15 01:42:54;;;;;;;22.63;13.55;;;10.60;99.90;;;;;;6251813;22;20418;-63
2022/05/15 01:45:19;;;;;;;26.65;14.13;;;10.60;99.90;;;;;;6251539;22;20086;-62
2022/05/15 01:47:45;;;;;;;28.75;13.32;;;10.70;99.90;;;;;;6256604;22;20011;-62
2022/05/15 01:50:11;;;;;;;23.92;13.65;;;10.80;99.90;;;;;;6248835;22;20078;-63
2022/05/15 01:52:37;;;;;;;26.75;13.48;;;10.70;99.90;;;;;;6249046;22;20390;-64
2022/05/15 01:55:03;;;;;;;23.27;12.18;;;10.90;99.90;;;;;;6244015;22;20030;-64
2022/05/15 01:57:28;;;;;;;20.55;12.38;;;10.90;99.90;;;;;;6253929;22;20000;-63
2022/05/15 01:59:54;;;;;;;22.92;13.10;;;11.00;99.90;;;;;;6251704;22;20133;-63
2022/05/15 02:02:19;;;;;;;16.02;12.25;;;10.90;99.90;;;;;;6248218;22;20416;-63
2022/05/15 02:04:45;;;;;;;31.38;14.18;;;10.80;99.90;;;;;;6246171;22;20476;-62
2022/05/15 02:07:10;;;;;;;26.77;13.32;;;10.80;99.90;;;;;;6251429;22;20004;-63
2022/05/15 02:09:36;;;;;;;20.35;12.68;;;10.80;99.90;;;;;;6248947;22;20784;-62
2022/05/15 02:12:02;;;;;;;26.95;13.50;;;10.70;99.90;;;;;;6255940;22;20020;-62
2022/05/15 02:14:27;;;;;;;21.52;12.52;;;10.70;99.90;;;;;;6250951;22;20427;-62
2022/05/15 02:16:53;;;;;;;23.98;13.93;;;10.70;99.90;;;;;;6242932;22;20297;-63
2022/05/15 02:19:18;;;;;;;24.85;13.68;;;10.70;99.90;;;;;;6253077;22;20010;-62
2022/05/15 02:21:45;;;;;;;21.60;13.00;;;10.70;99.90;;;;;;6254559;22;20441;-62
2022/05/15 02:24:11;;;;;;;24.73;13.43;;;11.00;99.90;;;;;;6256521;22;20004;-63
2022/05/15 02:26:37;;;;;;;23.63;12.95;;;10.70;99.90;;;;;;6164482;22;20034;-63
2022/05/15 02:29:03;;;;;;;32.08;14.10;;;10.70;99.90;;;;;;6256792;22;19999;-63
2022/05/15 02:31:29;;;;;;;28.63;14.50;;;10.70;99.90;;;;;;6250724;22;20109;-63
2022/05/15 02:33:55;;;;;;;24.73;14.40;;;10.70;99.90;;;;;;6251240;22;20004;-62
2022/05/15 02:36:20;;;;;;;29.85;14.77;;;10.70;99.90;;;;;;6255258;22;19999;-62
2022/05/15 02:38:46;;;;;;;30.63;14.77;;;10.60;99.90;;;;;;6258959;22;20003;-62
2022/05/15 02:41:11;;;;;;;27.30;13.48;;;10.50;99.90;;;;;;6257452;22;20018;-63
2022/05/15 02:43:37;;;;;;;27.13;13.50;;;10.50;99.90;;;;;;6254807;22;20099;-62
2022/05/15 02:46:02;;;;;;;24.90;15.15;;;10.40;99.90;;;;;;6250993;22;20009;-63
2022/05/15 02:51:12;;;;;;;24.42;13.82;;;10.30;99.90;;;;;;6258996;22;20054;-63
2022/05/15 02:53:40;;;;;;;25.48;15.23;;;10.20;99.90;;;;;;6253041;22;20452;-62
2022/05/15 02:56:20;;;;;;;27.73;15.02;;;10.20;99.90;;;;;;6252894;22;20004;-62
2022/05/15 02:58:45;;;;;;;29.25;15.30;;;10.10;99.90;;;;;;6252889;22;20008;-63
2022/05/15 03:01:11;;;;;;;27.20;15.30;;;10.00;99.90;;;;;;6250656;22;20010;-62
2022/05/15 03:03:37;;;;;;;26.75;17.23;;;10.10;99.90;;;;;;6258863;22;20432;-63
2022/05/15 03:06:04;;;;;;;26.10;15.02;;;10.00;99.90;;;;;;6251702;22;20061;-62
2022/05/15 03:08:34;;;;;;;24.77;15.35;;;10.00;99.90;;;;;;6250435;22;20014;-63
2022/05/15 03:11:00;;;;;;;28.50;15.18;;;9.90;99.90;;;;;;6250347;22;20258;-62
2022/05/15 03:13:25;;;;;;;23.40;15.23;;;9.80;99.90;;;;;;6259058;22;20250;-62
2022/05/15 03:15:51;;;;;;;28.50;15.85;;;9.80;99.90;;;;;;6257869;22;20444;-64
2022/05/15 03:18:16;;;;;;;27.10;15.88;;;9.70;99.90;;;;;;6251541;22;20442;-63
2022/05/15 03:20:42;;;;;;;28.55;16.35;;;9.70;99.90;;;;;;6249759;22;20004;-62
2022/05/15 03:23:08;;;;;;;24.88;15.02;;;9.50;99.90;;;;;;6254305;22;20012;-62
2022/05/15 03:25:34;;;;;;;25.88;16.27;;;10.20;99.90;;;;;;6254346;22;20003;-62
2022/05/15 03:28:00;;;;;;;28.27;16.63;;;9.40;99.90;;;;;;6259554;22;20320;-62
2022/05/15 03:30:26;;;;;;;32.72;17.45;;;9.40;99.90;;;;;;6253632;22;20007;-62
2022/05/15 03:32:51;;;;;;;28.02;16.50;;;9.40;99.90;;;;;;6254544;22;20018;-62
2022/05/15 03:35:17;;;;;;;28.63;18.05;;;9.40;99.90;;;;;;6251025;22;20440;-62
2022/05/15 03:37:43;;;;;;;29.27;18.88;;;9.50;99.90;;;;;;6252328;22;20086;-62
2022/05/15 03:40:11;;;;;;;30.17;18.40;;;9.50;99.90;;;;;;6253591;22;20518;-62
2022/05/15 03:42:37;;;;;;;26.88;17.75;;;9.70;99.90;;;;;;6259059;22;20314;-63
2022/05/15 03:45:03;;;;;;;25.15;16.30;;;9.80;99.90;;;;;;6251742;22;20328;-62
2022/05/15 03:47:28;;;;;;;28.13;17.15;;;9.70;99.90;;;;;;6250428;22;20412;-63
2022/05/15 03:49:54;;;;;;;29.05;17.33;;;9.60;99.90;;;;;;6249085;22;20366;-63
2022/05/15 03:52:21;;;;;;;27.67;16.35;;;9.60;99.90;;;;;;6253868;22;20004;-62
2022/05/15 03:54:47;;;;;;;33.13;17.10;;;9.50;99.90;;;;;;6256999;22;20443;-63
2022/05/15 03:57:12;;;;;;;26.45;16.83;;;9.50;99.90;;;;;;6253248;22;20000;-62
2022/05/15 03:59:39;;;;;;;24.58;17.08;;;9.70;99.90;;;;;;6249321;22;20004;-62
2022/05/15 04:02:05;;;;;;;29.48;18.13;;;9.70;99.90;;;;;;6250980;22;20215;-61
2022/05/15 04:04:32;;;;;;;27.05;17.85;;;9.60;99.90;;;;;;6251928;22;20054;-62
2022/05/15 04:06:57;;;;;;;27.33;17.40;;;9.70;99.90;;;;;;6258814;22;20012;-63
2022/05/15 04:09:23;;;;;;;25.92;15.70;;;9.80;99.90;;;;;;6248463;22;20038;-62
2022/05/15 04:11:49;;;;;;;25.20;17.67;;;9.80;99.90;;;;;;6254643;22;20016;-62
2022/05/15 04:14:14;;;;;;;26.55;15.93;;;9.80;99.90;;;;;;6254226;22;20428;-62
2022/05/15 04:16:40;;;;;;;27.30;17.17;;;9.90;99.90;;;;;;6259138;22;19996;-63
2022/05/15 04:19:05;;;;;;;30.92;16.88;;;9.90;99.90;;;;;;6259361;22;20030;-63
2022/05/15 04:21:36;;;;;;;25.58;16.38;;;10.00;99.90;;;;;;6253220;22;20371;-63
2022/05/15 04:24:05;;;;;;;21.80;14.57;;;10.10;99.90;;;;;;6254545;22;20437;-62
2022/05/15 04:26:31;;;;;;;28.38;15.13;;;10.10;99.90;;;;;;6254687;22;20443;-63
2022/05/15 04:28:57;;;;;;;24.83;15.23;;;10.10;99.90;;;;;;6258993;22;20003;-62
2022/05/15 04:31:22;;;;;;;22.90;14.75;;;10.20;99.90;;;;;;6257712;22;20526;-61
2022/05/15 04:33:47;;;;;;;25.38;15.48;;;10.30;99.90;;;;;;6261651;22;20000;-59
2022/05/15 04:36:13;;;;;;;27.42;14.80;;;10.40;99.90;;;;;;6259449;22;20000;-64
2022/05/15 04:38:39;;;;;;;19.77;14.35;;;10.50;99.90;;;;;;6253788;22;20007;-63
2022/05/15 04:41:05;;;;;;;23.52;15.32;;;10.60;99.90;;;;;;6259425;22;20070;-63
2022/05/15 04:43:30;;;;;;;24.92;14.00;;;10.70;99.90;;;;;;6253182;22;20066;-63
2022/05/15 04:45:56;;;;;;;22.00;13.55;;;10.80;99.90;;;;;;6258974;22;20012;-63
2022/05/15 04:48:21;;;;;;;18.98;13.30;;;11.00;99.90;;;;;;6250679;22;19999;-62
2022/05/15 04:50:47;;;;;;;19.33;12.80;;;11.20;99.90;;;;;;6252668;22;20003;-63
2022/05/15 04:53:12;;;;;;;19.42;12.70;;;11.30;99.90;;;;;;6252152;22;20073;-63
2022/05/15 04:55:38;;;;;;;22.63;12.52;;;11.50;99.90;;;;;;6252902;22;20017;-63
2022/05/15 04:58:03;;;;;;;22.50;12.65;;;11.70;99.90;;;;;;6257974;22;20060;-63
2022/05/15 05:00:29;;;;;;;22.33;12.80;;;11.70;99.90;;;;;;6256170;22;20004;-63
2022/05/15 05:02:55;;;;;;;21.00;12.30;;;11.80;99.90;;;;;;6253118;22;20003;-63
2022/05/15 05:05:20;;;;;;;24.23;10.98;;;12.30;99.90;;;;;;6249827;22;20034;-62
2022/05/15 05:07:46;;;;;;;18.52;10.00;;;13.90;99.90;;;;;;6254629;22;20019;-63
2022/05/15 05:10:11;;;;;;;15.20;8.82;;;15.50;98.70;;;;;;6253901;22;20028;-62
2022/05/15 05:12:37;;;;;;;16.58;9.30;;;17.10;94.80;;;;;;6260402;22;20135;-63
2022/05/15 05:15:06;;;;;;;14.68;8.48;;;18.20;91.70;;;;;;6256299;22;20509;-63
2022/05/15 05:17:32;;;;;;;11.77;7.15;;;19.30;85.00;;;;;;6253693;22;20004;-63
2022/05/15 05:19:57;;;;;;;13.20;8.10;;;19.90;80.90;;;;;;6252295;22;20102;-63
2022/05/15 05:22:23;;;;;;;16.45;8.48;;;20.10;76.50;;;;;;6256608;22;20011;-62
2022/05/15 05:24:48;;;;;;;18.48;8.38;;;19.90;75.20;;;;;;6257693;22;20352;-63
2022/05/15 05:27:14;;;;;;;17.15;9.20;;;20.20;75.00;;;;;;6257467;22;20011;-63
2022/05/15 05:29:39;;;;;;;15.57;8.50;;;20.50;72.70;;;;;;6257589;22;20354;-63
2022/05/15 05:32:05;;;;;;;15.13;7.85;;;20.60;71.70;;;;;;6258909;22;20079;-63
2022/05/15 05:34:31;;;;;;;14.07;8.00;;;21.80;66.00;;;;;;6266531;22;20438;-63
2022/05/15 05:36:56;;;;;;;13.05;7.93;;;21.70;63.90;;;;;;6263976;22;20002;-63
2022/05/15 05:39:22;;;;;;;15.05;8.52;;;22.40;60.50;;;;;;6266956;22;20084;-63
2022/05/15 05:41:47;;;;;;;19.92;7.97;;;22.00;61.20;;;;;;6262143;22;20167;-62
2022/05/15 05:44:13;;;;;;;16.30;8.60;;;21.90;60.90;;;;;;6266403;22;20276;-63
2022/05/15 05:46:39;;;;;;;11.98;7.95;;;21.60;61.60;;;;;;6263475;22;20004;-62
2022/05/15 05:49:04;;;;;;;16.35;8.32;;;21.50;62.80;;;;;;6266085;22;20087;-63
2022/05/15 05:51:30;;;;;;;13.75;7.47;;;22.50;60.50;;;;;;6263082;22;20004;-63
2022/05/15 05:53:55;;;;;;;16.50;8.63;;;22.70;59.60;;;;;;6266803;22;20725;-62
2022/05/15 05:56:21;;;;;;;14.82;7.53;;;22.80;58.00;;;;;;6263755;22;20147;-63
2022/05/15 05:58:46;;;;;;;13.65;7.75;;;23.10;57.80;;;;;;6265813;22;19999;-63
2022/05/15 06:01:13;;;;;;;15.35;7.65;;;22.40;57.20;;;;;;6262644;22;20512;-63
2022/05/15 06:06:23;;;;;;;12.40;8.15;;;23.80;56.10;;;;;;6263547;22;20095;-62
2022/05/15 06:08:48;;;;;;;13.60;9.02;;;23.20;57.70;;;;;;6265908;22;20455;-62
2022/05/15 06:11:14;;;;;;;14.32;7.60;;;22.80;58.20;;;;;;6262832;22;20026;-63
2022/05/15 06:13:39;;;;;;;14.98;7.97;;;23.10;59.00;;;;;;6263011;22;20008;-63
2022/05/15 06:16:06;;;;;;;15.95;8.20;;;22.70;58.90;;;;;;6264089;22;20000;-63
2022/05/15 06:18:32;;;;;;;14.48;8.05;;;22.60;59.20;;;;;;6262090;22;20446;-62
2022/05/15 06:20:58;;;;;;;15.45;8.55;;;22.80;59.20;;;;;;6263411;22;20003;-63
2022/05/15 06:23:23;;;;;;;17.70;8.20;;;23.40;57.80;;;;;;6259071;22;20039;-62
2022/05/15 06:25:49;;;;;;;15.05;8.98;;;23.80;57.70;;;;;;6261024;22;20038;-62
2022/05/15 06:28:14;;;;;;;14.82;8.30;;;24.20;55.00;;;;;;6181649;22;20494;-61
2022/05/15 06:30:40;;;;;;;16.15;8.73;;;25.20;53.60;;;;;;6264291;22;20004;-61
2022/05/15 06:33:06;;;;;;;13.48;8.52;;;25.30;52.20;;;;;;6266159;22;20011;-61
2022/05/15 06:35:31;;;;;;;17.20;8.77;;;24.20;53.70;;;;;;6263700;22;20008;-62
2022/05/15 06:38:00;;;;;;;13.63;8.55;;;23.30;56.10;;;;;;6265754;22;20003;-63
2022/05/15 06:40:26;;;;;;;10.77;8.30;;;23.60;55.90;;;;;;6262005;22;20037;-60
2022/05/15 06:42:52;;;;;;;17.40;8.82;;;24.40;54.40;;;;;;6260612;22;20480;-60
2022/05/15 06:45:18;;;;;;;16.75;9.25;;;25.30;52.30;;;;;;6258598;22;20062;-61
2022/05/15 06:47:43;;;;;;;21.10;9.80;;;24.90;52.20;;;;;;6265018;22;20008;-61
2022/05/15 06:50:09;;;;;;;14.15;9.15;;;24.50;53.70;;;;;;6263870;22;20031;-62
2022/05/15 06:52:36;;;;;;;15.13;8.15;;;25.30;51.90;;;;;;6265099;22;20182;-61
2022/05/15 06:55:06;;;;;;;18.08;7.70;;;25.50;50.90;;;;;;6263273;22;19999;-60
2022/05/15 06:57:33;;;;;;;13.45;7.22;;;25.80;48.40;;;;;;6265645;22;20494;-61
2022/05/15 06:59:59;;;;;;;17.42;7.38;;;26.20;48.70;;;;;;6263703;22;20026;-61
2022/05/15 07:02:26;;;;;;;12.02;6.15;;;24.90;49.70;;;;;;6265087;22;20004;-61
2022/05/15 07:04:52;;;;;;;16.77;6.15;;;25.70;49.30;;;;;;6263023;22;20003;-61
2022/05/15 07:07:18;;;;;;;16.80;6.13;;;26.10;48.00;;;;;;6259247;22;20003;-61
2022/05/15 07:09:43;;;;;;;14.95;6.03;;;26.00;47.60;;;;;;6263102;22;20004;-61
2022/05/15 07:12:09;;;;;;;13.00;5.85;;;27.30;47.00;;;;;;6266049;22;20087;-62
2022/05/15 07:14:35;;;;;;;11.48;5.72;;;26.10;48.00;;;;;;6263276;22;20004;-62
2022/05/15 07:17:00;;;;;;;13.65;6.15;;;26.70;47.10;;;;;;6266281;22;20049;-62
2022/05/15 07:19:26;;;;;;;18.65;6.32;;;26.60;46.10;;;;;;6263102;22;20411;-61
2022/05/15 07:21:51;;;;;;;13.95;5.72;;;26.70;46.10;;;;;;6265241;22;20061;-62
2022/05/15 07:24:17;;;;;;;11.88;5.22;;;26.50;48.00;;;;;;6263213;22;20008;-61
2022/05/15 07:26:45;;;;;;;8.52;5.10;;;26.00;47.00;;;;;;6264855;22;20035;-62
2022/05/15 07:29:33;;;;;;;18.20;5.63;;;26.90;47.50;;;;;;6263260;22;20321;-61
2022/05/15 07:31:59;;;;;;;13.67;5.50;;;26.40;48.10;;;;;;6259817;22;20091;-61
2022/05/15 07:34:24;;;;;;;13.45;5.50;;;26.30;47.80;;;;;;6254342;22;20372;-60
2022/05/15 07:36:50;;;;;;;16.98;5.50;;;26.80;47.30;;;;;;6257668;22;20070;-61
2022/05/15 07:39:17;;;;;;;11.43;5.25;;;27.50;45.10;;;;;;6253175;22;20129;-60
2022/05/15 07:41:42;;;;;;;9.10;4.30;;;27.80;45.50;;;;;;6259391;22;20010;-61
2022/05/15 07:44:08;;;;;;;8.65;4.72;;;27.80;43.80;;;;;;6256366;22;20008;-61
2022/05/15 07:46:34;;;;;;;11.40;5.03;;;27.70;43.80;;;;;;6251755;22;20014;-61
2022/05/15 07:48:59;;;;;;;13.38;4.85;;;28.00;45.70;;;;;;6250066;22;20474;-61
2022/05/15 07:51:25;;;;;;;10.15;5.05;;;28.10;44.70;;;;;;6254297;22;20011;-60
2022/05/15 07:53:50;;;;;;;12.48;4.93;;;28.00;44.60;;;;;;6258719;22;20439;-60
2022/05/15 07:56:16;;;;;;;7.20;3.83;;;27.30;45.80;;;;;;6254103;22;20008;-61
2022/05/15 07:58:41;;;;;;;12.68;4.80;;;28.30;44.00;;;;;;6252178;22;20004;-61
2022/05/15 08:01:07;;;;;;;12.70;4.55;;;28.40;43.70;;;;;;6255770;22;20034;-60
2022/05/15 08:03:34;;;;;;;9.82;4.68;;;29.30;42.80;;;;;;6256271;22;20247;-61
2022/05/15 08:08:44;;;;;;;14.18;4.93;;;28.70;43.30;;;;;;6250496;22;20014;-60
2022/05/15 08:11:10;;;;;;;12.70;5.72;;;29.80;42.60;;;;;;6256044;22;20024;-61
2022/05/15 08:13:36;;;;;;;14.05;5.78;;;27.70;44.20;;;;;;6256146;22;20026;-61
2022/05/15 08:16:01;;;;;;;12.73;5.10;;;29.00;43.30;;;;;;6261204;22;20003;-60
2022/05/15 08:23:57;;;;;;;8.68;4.82;;;30.30;42.10;;;;;;6251696;22;20090;-61
2022/05/15 08:26:23;;;;;;;11.18;4.30;;;29.50;42.50;;;;;;6194118;22;20985;-61
2022/05/15 08:28:49;;;;;;;16.35;5.28;;;30.90;42.00;;;;;;6253292;22;20102;-61
2022/05/15 08:31:14;;;;;;;12.52;4.72;;;30.90;40.70;;;;;;6259440;22;20592;-60
2022/05/15 08:33:41;;;;;;;15.48;4.50;;;32.70;39.30;;;;;;6257781;22;20263;-60
2022/05/15 08:36:07;;;;;;;15.98;4.90;;;32.00;37.40;;;;;;6259511;22;20004;-60
2022/05/15 08:38:33;;;;;;;13.23;5.10;;;32.10;37.20;;;;;;6251782;22;19999;-60
2022/05/15 08:41:04;;;;;;;11.30;4.85;;;32.20;36.00;;;;;;6253773;22;19996;-60
2022/05/15 08:43:44;;;;;;;11.60;4.47;;;31.80;37.30;;;;;;6254546;22;20448;-60
2022/05/15 08:46:31;;;;;;;10.95;5.03;;;31.20;37.70;;;;;;6261093;22;20035;-61
2022/05/15 08:49:09;;;;;;;11.60;4.10;;;31.80;36.80;;;;;;6258898;22;20054;-60
2022/05/15 08:51:34;;;;;;;12.43;4.60;;;31.10;38.10;;;;;;6254862;22;20087;-60
2022/05/15 08:54:05;;;;;;;16.42;5.13;;;30.40;36.40;;;;;;6249974;22;20031;-60
2022/05/15 08:56:33;;;;;;;12.75;4.88;;;28.60;38.90;;;;;;6227678;22;20000;-61
2022/05/15 08:58:59;;;;;;;15.65;4.30;;;30.10;38.00;;;;;;6251253;22;20464;-61
2022/05/15 09:01:26;;;;;;;8.35;4.05;;;31.20;37.60;;;;;;6252076;22;20014;-60
2022/05/15 09:03:52;;;;;;;12.55;4.50;;;31.20;36.00;;;;;;6256973;22;20129;-60
2022/05/15 09:06:35;;;;;;;10.98;4.00;;;31.00;35.70;;;;;;6245657;22;20436;-60
2022/05/15 09:09:24;;;;;;;12.82;3.65;;;30.70;34.80;;;;;;6248018;22;20012;-59
2022/05/15 09:12:16;;;;;;;13.50;4.10;;;32.40;34.80;;;;;;6250496;22;20059;-61
2022/05/15 09:15:04;;;;;;;9.23;3.85;;;33.10;34.30;;;;;;6253918;22;20012;-59
2022/05/15 09:17:53;;;;;;;11.80;4.70;;;30.70;34.20;;;;;;6255320;22;20004;-61
2022/05/15 09:20:31;;;;;;;9.55;4.00;;;30.70;35.80;;;;;;6246368;22;20051;-61
2022/05/15 09:23:37;;;;;;;12.32;4.45;;;30.30;35.10;;;;;;6248722;22;20344;-61
2022/05/15 09:26:05;;;;;;;13.77;4.43;;;31.20;35.90;;;;;;6219616;22;20501;-60
2022/05/15 09:28:40;;;;;;;10.43;4.38;;;30.30;37.00;;;;;;6254342;22;20633;-60
2022/05/15 09:31:06;;;;;;;7.95;4.20;;;30.00;36.40;;;;;;6255728;22;20304;-60
2022/05/15 09:33:46;;;;;;;12.13;3.90;;;29.70;37.30;;;;;;6247139;22;20004;-60
2022/05/15 09:36:21;;;;;;;9.73;3.88;;;31.00;36.60;;;;;;6250813;22;20006;-60
2022/05/15 09:38:47;;;;;;;7.55;3.92;;;31.10;35.70;;;;;;6250144;22;20419;-60
2022/05/15 09:44:27;;;;;;;8.30;3.88;;;31.10;36.20;;;;;;6250926;22;20367;-60
2022/05/15 09:46:59;;;;;;;9.52;4.03;;;29.80;36.20;;;;;;6249487;22;20616;-60
2022/05/15 09:49:26;;;;;;;9.05;3.97;;;31.00;36.30;;;;;;6247292;22;20007;-60
2022/05/15 09:51:52;;;;;;;9.98;4.13;;;32.20;35.90;;;;;;6247380;22;20047;-60
2022/05/15 09:54:38;;;;;;;11.43;4.15;;;30.10;36.10;;;;;;6246937;22;20436;-60
2022/05/15 09:57:27;;;;;;;11.50;3.72;;;31.20;36.80;;;;;;6256383;22;20329;-59
2022/05/15 09:59:58;;;;;;;16.35;4.55;;;31.30;36.40;;;;;;6248936;22;20007;-60
2022/05/15 10:02:37;;;;;;;10.68;3.78;;;31.80;35.90;;;;;;6248861;22;20008;-60
2022/05/15 10:05:28;;;;;;;10.02;4.15;;;29.70;37.50;;;;;;6246438;22;20559;-61
2022/05/15 10:08:10;;;;;;;8.77;3.13;;;29.40;38.80;;;;;;6234670;22;20014;-61
2022/05/15 10:10:44;;;;;;;10.82;3.85;;;31.40;37.50;;;;;;6246976;22;20459;-61
2022/05/15 10:13:42;;;;;;;8.98;3.30;;;31.10;36.10;;;;;;6252855;22;20379;-61
2022/05/15 10:16:17;;;;;;;6.35;3.00;;;30.90;38.90;;;;;;6254457;22;20014;-60
2022/05/15 10:19:04;;;;;;;10.57;4.28;;;32.20;36.90;;;;;;6251748;22;20643;-60
2022/05/15 10:21:38;;;;;;;9.38;3.78;;;32.10;36.90;;;;;;6222371;22;20428;-60
2022/05/15 10:24:05;;;;;;;10.65;3.17;;;32.00;37.00;;;;;;6245142;22;20290;-61
2022/05/15 10:27:10;;;;;;;8.20;3.50;;;32.30;35.60;;;;;;6252165;22;20007;-60
2022/05/15 10:30:03;;;;;;;7.38;3.00;;;32.30;35.60;;;;;;6254472;22;20498;-61
2022/05/15 10:32:40;;;;;;;10.65;3.53;;;31.60;35.60;;;;;;6253870;22;20031;-60
2022/05/15 10:35:09;;;;;;;12.43;4.65;;;32.10;36.60;;;;;;6247565;22;20342;-60
2022/05/15 10:38:02;;;;;;;15.57;3.60;;;31.50;36.60;;;;;;6222276;22;20011;-60
2022/05/15 10:40:48;;;;;;;11.13;4.15;;;31.10;37.60;;;;;;6229514;22;20503;-61
2022/05/15 10:43:50;;;;;;;11.32;3.50;;;31.10;37.30;;;;;;6231220;22;20098;-61
2022/05/15 10:46:34;;;;;;;12.85;3.78;;;30.20;40.40;;;;;;6252626;22;20003;-61
2022/05/15 10:49:20;;;;;;;12.07;3.77;;;31.20;37.50;;;;;;6252355;22;20015;-62
2022/05/15 10:51:58;;;;;;;7.18;3.45;;;30.50;37.70;;;;;;6225698;22;19999;-61
2022/05/15 10:57:51;;;;;;;10.63;2.72;;;31.70;36.30;;;;;;6255109;22;20042;-62
2022/05/15 11:00:28;;;;;;;10.38;3.20;;;31.70;37.50;;;;;;6254131;22;20012;-62
2022/05/15 11:03:24;;;;;;;8.38;3.53;;;32.50;36.20;;;;;;6223899;22;20007;-62
2022/05/15 11:06:27;;;;;;;4.93;2.88;;;31.90;35.80;;;;;;6251757;22;20490;-61
2022/05/15 11:08:56;;;;;;;7.80;3.17;;;31.40;37.40;;;;;;6256264;22;20475;-62
2022/05/15 11:11:27;;;;;;;7.93;3.03;;;29.80;38.00;;;;;;6255467;22;20110;-61
2022/05/15 11:13:57;;;;;;;11.00;3.50;;;31.50;37.30;;;;;;6251132;22;20283;-61
2022/05/15 11:16:52;;;;;;;7.50;2.90;;;30.90;37.00;;;;;;6251191;22;19999;-60
2022/05/15 11:19:40;;;;;;;11.88;4.18;;;31.20;37.00;;;;;;6253449;22;20006;-62
2022/05/15 11:22:24;;;;;;;11.48;3.00;;;31.60;36.90;;;;;;6259190;22;20018;-62
2022/05/15 11:25:04;;;;;;;9.60;3.35;;;32.40;35.70;;;;;;6255189;22;20343;-61
2022/05/15 11:27:29;;;;;;;14.88;3.55;;;31.80;36.10;;;;;;6230854;22;19995;-62
2022/05/15 11:29:56;;;;;;;8.40;3.10;;;30.60;37.40;;;;;;6250387;22;20102;-62
2022/05/15 11:32:33;;;;;;;10.07;3.00;;;31.40;37.40;;;;;;6252346;22;20000;-61
2022/05/15 11:35:06;;;;;;;8.95;3.30;;;32.30;35.70;;;;;;6252974;22;20477;-61
2022/05/15 11:37:38;;;;;;;6.63;3.28;;;31.30;36.40;;;;;;6257464;22;20011;-62
2022/05/15 11:40:04;;;;;;;8.68;3.22;;;29.90;39.80;;;;;;6257537;22;20011;-61
2022/05/15 11:42:30;;;;;;;11.10;3.08;;;30.70;37.60;;;;;;6256740;22;20487;-61
2022/05/15 11:44:56;;;;;;;9.00;3.78;;;31.20;37.40;;;;;;6249142;22;20432;-61
2022/05/15 11:47:32;;;;;;;8.55;3.30;;;31.30;35.90;;;;;;6224438;22;20011;-61
2022/05/15 11:50:05;;;;;;;11.60;2.97;;;30.30;36.60;;;;;;6251702;22;20537;-60
2022/05/15 11:52:57;;;;;;;11.40;3.80;;;30.60;38.70;;;;;;6258732;22;20057;-61
2022/05/15 11:55:42;;;;;;;7.05;3.05;;;30.60;37.70;;;;;;6244447;22;20004;-61
2022/05/15 11:58:26;;;;;;;7.50;3.05;;;31.00;37.00;;;;;;6253668;22;20008;-61
2022/05/15 12:01:07;;;;;;;7.90;2.53;;;30.10;37.40;;;;;;6248892;22;20074;-62
2022/05/15 12:03:39;;;;;;;8.68;3.17;;;30.40;37.10;;;;;;6255822;22;20039;-61
2022/05/15 12:06:25;;;;;;;4.88;2.55;;;30.00;38.40;;;;;;6256043;22;19996;-61
2022/05/15 12:08:53;;;;;;;8.02;2.83;;;29.60;38.40;;;;;;6249711;22;20000;-61
2022/05/15 12:11:18;;;;;;;9.40;3.00;;;29.60;36.60;;;;;;6252880;22;20127;-62
2022/05/15 12:13:45;;;;;;;7.22;2.75;;;29.30;37.60;;;;;;6256296;22;20082;-62
2022/05/15 12:16:24;;;;;;;11.00;3.25;;;28.90;37.50;;;;;;6257444;22;20452;-63
2022/05/15 12:19:05;;;;;;;12.57;5.95;;;28.40;38.20;;;;;;6254922;22;19996;-60
2022/05/15 12:21:39;;;;;;;12.50;3.60;;;28.30;38.60;;;;;;6249216;22;20000;-62
2022/05/15 12:26:55;;;;;;;;;;;28.10;38.40;;;;;;6171428;22;20018;-62
2022/05/15 12:29:33;;;;;;;5.28;2.38;;;28.60;38.50;;;;;;6253994;22;20240;-62
2022/05/15 12:31:58;;;;;;;8.48;3.17;;;28.30;36.80;;;;;;6257206;22;20010;-62
2022/05/15 12:34:35;;;;;;;8.70;3.15;;;27.80;38.40;;;;;;6252618;22;20034;-61
2022/05/15 12:37:06;;;;;;;6.15;3.20;;;27.90;38.40;;;;;;6252341;22;20062;-62
2022/05/15 12:39:36;;;;;;;12.38;2.45;;;27.60;38.10;;;;;;6251124;22;20223;-62
2022/05/15 12:42:07;;;;;;;6.82;2.63;;;27.60;38.40;;;;;;6260026;22;20004;-60
2022/05/15 12:44:35;;;;;;;11.82;3.10;;;27.20;37.70;;;;;;6254554;22;20737;-62
2022/05/15 12:47:02;;;;;;;11.88;3.05;;;27.90;37.90;;;;;;6253837;22;20030;-62
2022/05/15 12:49:31;;;;;;;9.38;2.33;;;27.40;37.80;;;;;;6251038;22;20004;-62
2022/05/15 12:52:11;;;;;;;12.18;2.80;;;27.10;38.30;;;;;;6255613;22;20505;-61
2022/05/15 12:54:37;;;;;;;9.77;2.53;;;27.30;37.70;;;;;;6258461;22;20008;-62
2022/05/15 12:57:04;;;;;;;7.22;2.67;;;27.10;38.10;;;;;;6255796;22;20004;-61
2022/05/15 12:59:34;;;;;;;7.55;2.95;;;26.70;37.70;;;;;;6250754;22;20004;-62
2022/05/15 13:02:13;;;;;;;5.28;2.38;;;26.60;38.00;;;;;;6252420;22;20000;-62
2022/05/15 13:04:44;;;;;;;7.95;2.40;;;26.70;37.50;;;;;;6251790;22;20004;-61
2022/05/15 13:07:09;;;;;;;7.55;2.33;;;26.80;38.00;;;;;;6260353;22;20035;-60
2022/05/15 13:09:35;;;;;;;8.50;2.42;;;26.70;39.30;;;;;;6250958;22;20050;-62
2022/05/15 13:12:01;;;;;;;4.20;2.22;;;26.80;37.40;;;;;;6248390;22;20011;-61